createdAt,value
2023-01-12T05:29:28.911Z,100.00
2023-01-12T05:34:30.524Z,100.00
2023-01-12T05:39:32.116Z,100.00
2023-01-12T05:44:33.867Z,100.00
2023-01-12T05:49:35.665Z,100.00
2023-01-12T05:54:37.397Z,100.00
2023-01-12T05:59:39.125Z,100.00
2023-01-12T06:04:40.800Z,100.00
2023-01-12T06:09:42.765Z,100.00
2023-01-12T06:14:44.465Z,100.00
2023-01-12T06:19:46.121Z,100.00
2023-01-12T06:24:49.322Z,100.00
2023-01-12T06:29:51.033Z,100.00
2023-01-12T06:34:52.666Z,100.00
2023-01-12T06:39:54.325Z,100.00
2023-01-12T06:44:56.660Z,100.00
2023-01-12T06:49:58.749Z,100.00
2023-01-12T06:55:00.401Z,100.00
2023-01-12T07:00:02.465Z,100.00
2023-01-12T07:05:04.447Z,100.00
2023-01-12T07:10:06.722Z,100.00
2023-01-12T07:15:09.235Z,100.00
2023-01-12T07:20:11.252Z,100.00
2023-01-12T07:25:12.898Z,100.00
2023-01-12T07:30:14.540Z,100.00
2023-01-12T07:35:17.103Z,100.00
2023-01-12T07:40:18.938Z,100.00
2023-01-12T07:45:20.577Z,100.00
2023-01-12T07:50:23.983Z,100.00
2023-01-12T07:55:25.594Z,100.00
2023-01-12T08:00:28.839Z,100.00
2023-01-12T08:05:30.704Z,100.00
2023-01-12T08:10:32.728Z,100.00
2023-01-12T08:15:40.446Z,100.00
2023-01-12T08:20:42.755Z,100.00
2023-01-12T08:25:48.647Z,100.00
2023-01-12T08:30:51.704Z,100.00
2023-01-12T08:35:54.264Z,100.00
2023-01-12T08:41:14.645Z,100.00
2023-01-12T08:46:16.484Z,100.00
2023-01-12T08:51:18.372Z,100.00
2023-01-12T08:56:20.333Z,100.00
2023-01-12T09:01:22.557Z,100.00
2023-01-12T09:06:27.561Z,100.00
2023-01-12T09:11:30.794Z,100.00
2023-01-12T09:16:33.816Z,100.00
2023-01-12T09:21:41.184Z,100.00
2023-01-12T09:26:45.438Z,100.00
2023-01-12T09:31:47.285Z,100.00
2023-01-12T09:36:52.259Z,100.00
2023-01-12T09:42:12.630Z,100.00
2023-01-12T09:47:32.853Z,100.00
2023-01-12T09:53:00.376Z,100.00
2023-01-12T09:58:14.099Z,100.00
2023-01-12T10:03:35.730Z,100.00
2023-01-12T10:08:44.701Z,100.00
2023-01-12T10:14:01.288Z,100.00
2023-01-12T10:19:13.226Z,100.00
2023-01-12T10:24:15.950Z,100.00
2023-01-12T10:29:17.634Z,100.00
2023-01-12T10:34:19.314Z,100.00
2023-01-12T10:39:36.392Z,100.00
2023-01-12T10:44:37.998Z,100.00
2023-01-12T10:49:40.756Z,96.83
2023-01-12T10:54:49.143Z,94.85
2023-01-12T10:59:59.582Z,92.72
2023-01-12T11:05:01.326Z,91.99
2023-01-12T11:10:29.255Z,91.06
2023-01-12T11:15:38.911Z,91.93
2023-01-12T11:21:15.920Z,92.17
2023-01-12T11:26:31.354Z,91.69
2023-01-12T11:31:39.581Z,92.93
2023-01-12T11:36:43.790Z,93.92
2023-01-12T11:42:08.005Z,95.63
2023-01-12T11:47:20.623Z,95.30
2023-01-12T11:52:25.197Z,94.95
2023-01-12T11:57:42.122Z,96.43
2023-01-12T12:02:54.549Z,95.80
2023-01-12T12:08:13.917Z,94.73
2023-01-12T12:13:21.413Z,94.66
2023-01-12T12:18:41.310Z,95.55
2023-01-12T12:24:19.145Z,93.74
2023-01-12T12:29:32.259Z,94.58
2023-01-12T12:34:45.399Z,93.00
2023-01-12T12:40:28.196Z,95.98
2023-01-12T12:46:02.265Z,97.42
2023-01-12T12:51:08.175Z,96.73
2023-01-12T12:56:13.099Z,96.94
2023-01-12T13:01:23.904Z,96.22
2023-01-12T13:06:32.697Z,96.98
2023-01-12T13:11:54.908Z,96.76
2023-01-12T13:17:00.969Z,98.37
2023-01-12T13:22:29.416Z,100.00
2023-01-12T13:27:55.719Z,100.00
2023-01-12T13:33:01.799Z,100.00
2023-01-12T13:38:28.385Z,100.00
2023-01-12T13:43:40.473Z,100.00
2023-01-12T13:48:47.662Z,100.00
2023-01-12T13:54:04.540Z,100.00
2023-01-12T13:59:08.527Z,100.00
2023-01-12T14:04:20.391Z,100.00
2023-01-12T14:09:36.659Z,100.00
2023-01-12T14:15:15.158Z,100.00
2023-01-12T14:20:21.369Z,100.00
2023-01-12T14:25:25.683Z,100.00
2023-01-12T14:30:29.120Z,100.00
2023-01-12T14:35:32.202Z,100.00
2023-01-12T14:40:35.363Z,100.00
2023-01-12T14:45:58.579Z,100.00
2023-01-12T14:51:19.205Z,100.00
2023-01-12T14:56:27.592Z,100.00
2023-01-12T15:01:33.058Z,100.00
2023-01-12T15:06:41.715Z,100.00
2023-01-12T15:11:43.741Z,100.00
2023-01-12T15:17:03.925Z,100.00
2023-01-12T15:22:27.749Z,100.00
2023-01-12T15:27:30.328Z,100.00
2023-01-12T15:32:47.325Z,100.00
2023-01-12T15:37:52.055Z,100.00
2023-01-12T15:42:54.264Z,100.00
2023-01-12T15:47:56.542Z,100.00
2023-01-12T15:53:00.675Z,100.00
2023-01-12T15:58:02.351Z,100.00
2023-01-12T16:03:05.218Z,100.00
2023-01-12T16:08:07.018Z,100.00
2023-01-12T16:13:12.070Z,100.00
2023-01-12T16:18:13.760Z,100.00
2023-01-12T16:23:15.384Z,100.00
2023-01-12T16:28:17.254Z,100.00
2023-01-12T16:33:19.586Z,100.00
2023-01-12T16:38:21.274Z,100.00
2023-01-12T16:43:24.343Z,100.00
2023-01-12T16:48:26.532Z,100.00
2023-01-12T16:53:28.349Z,100.00
2023-01-12T16:58:29.937Z,100.00
2023-01-12T17:03:32.176Z,100.00
2023-01-12T17:08:33.990Z,100.00
2023-01-12T17:13:36.036Z,100.00
2023-01-12T17:18:39.852Z,100.00
2023-01-12T17:23:43.000Z,100.00
2023-01-12T17:28:46.277Z,100.00
2023-01-12T17:33:48.371Z,100.00
2023-01-12T17:38:50.156Z,100.00
2023-01-12T17:43:51.813Z,100.00
2023-01-12T17:48:53.649Z,100.00
2023-01-12T17:53:59.774Z,100.00
2023-01-12T17:59:02.034Z,100.00
2023-01-12T18:04:04.255Z,100.00
2023-01-12T18:09:05.959Z,100.00
2023-01-12T18:14:08.627Z,100.00
2023-01-12T18:19:10.814Z,100.00
2023-01-12T18:24:12.493Z,100.00
2023-01-12T18:29:14.115Z,100.00
2023-01-12T18:34:18.560Z,100.00
2023-01-12T18:39:21.134Z,100.00
2023-01-12T18:44:24.225Z,100.00
2023-01-12T18:49:33.899Z,100.00
2023-01-12T18:54:48.384Z,100.00
2023-01-12T18:59:56.243Z,100.00
2023-01-12T19:05:17.024Z,100.00
2023-01-12T19:10:18.815Z,100.00
2023-01-12T19:15:39.054Z,100.00
2023-01-12T19:20:40.651Z,100.00
2023-01-12T19:26:00.971Z,100.00
2023-01-12T19:31:09.757Z,100.00
2023-01-12T19:36:16.800Z,100.00
2023-01-12T19:41:37.284Z,100.00
2023-01-12T19:46:39.168Z,100.00
2023-01-12T19:51:40.880Z,100.00
2023-01-12T19:56:42.554Z,100.00
2023-01-12T20:01:44.297Z,100.00
2023-01-12T20:06:45.986Z,100.00
2023-01-12T20:11:54.368Z,100.00
2023-01-12T20:16:57.687Z,100.00
2023-01-12T20:21:59.513Z,100.00
2023-01-12T20:27:01.282Z,100.00
2023-01-12T20:32:03.026Z,100.00
2023-01-12T20:37:04.704Z,100.00
2023-01-12T20:42:06.609Z,100.00
2023-01-12T20:47:08.416Z,100.00
2023-01-12T20:52:10.056Z,100.00
2023-01-12T20:57:11.801Z,100.00
2023-01-12T21:02:22.235Z,100.00
2023-01-12T21:07:24.830Z,100.00
